createdAt,value
2023-04-20T00:00:54.706Z,8.60
2023-04-20T00:15:54.553Z,8.50
2023-04-20T00:30:55.535Z,7.60
2023-04-20T00:45:54.274Z,7.80
2023-04-20T01:00:54.072Z,7.40
2023-04-20T01:15:53.986Z,7.30
2023-04-20T01:30:53.780Z,7.60
2023-04-20T01:45:53.728Z,8.40
2023-04-20T02:00:53.973Z,9.20
2023-04-20T02:15:53.327Z,10.00
2023-04-20T02:30:53.224Z,10.00
2023-04-20T02:45:53.016Z,11.10
2023-04-20T03:00:52.870Z,11.40
2023-04-20T03:15:52.751Z,12.20
2023-04-20T03:30:52.568Z,12.60
2023-04-20T03:45:52.472Z,12.70
2023-04-20T04:00:52.271Z,14.50
2023-04-20T04:15:52.141Z,14.30
2023-04-20T04:30:51.977Z,15.60
2023-04-20T04:45:51.835Z,16.30
2023-04-20T05:00:51.653Z,16.90
2023-04-20T05:15:51.557Z,16.70
2023-04-20T05:30:51.372Z,17.30
2023-04-20T05:45:51.275Z,18.10
2023-04-20T06:00:51.042Z,16.90
2023-04-20T06:15:50.925Z,16.40
2023-04-20T06:30:50.814Z,16.20
2023-04-20T06:45:50.600Z,16.40
2023-04-20T07:00:50.524Z,15.50
2023-04-20T07:15:50.291Z,15.50
2023-04-20T07:30:50.150Z,15.80
2023-04-20T07:45:50.094Z,16.40
2023-04-20T08:00:49.837Z,15.30
2023-04-20T08:15:49.837Z,16.10
2023-04-20T08:30:49.560Z,14.90
2023-04-20T08:45:49.354Z,13.70
2023-04-20T09:00:49.165Z,13.80
2023-04-20T09:15:49.069Z,15.00
2023-04-20T09:30:48.853Z,15.20
2023-04-20T09:45:48.760Z,15.30
2023-04-20T10:00:48.560Z,15.20
2023-04-20T10:15:48.384Z,13.70
2023-04-20T10:30:48.220Z,12.10
2023-04-20T10:45:48.135Z,10.10
2023-04-20T11:00:48.300Z,10.10
2023-04-20T11:15:47.911Z,11.10
2023-04-20T11:30:47.634Z,11.20
2023-04-20T11:45:47.465Z,11.40
2023-04-20T12:00:47.317Z,12.60
2023-04-20T12:15:47.170Z,12.10
2023-04-20T12:30:46.927Z,12.20
2023-04-20T12:45:46.799Z,12.50
2023-04-20T13:00:46.684Z,12.40
2023-04-20T13:15:46.468Z,12.00
2023-04-20T13:30:46.321Z,11.60
2023-04-20T13:45:46.177Z,10.50
2023-04-20T14:00:46.015Z,10.00
2023-04-20T14:15:45.904Z,9.50
2023-04-20T14:30:45.684Z,8.10
2023-04-20T14:45:45.605Z,7.20
2023-04-20T15:00:45.342Z,7.30
2023-04-20T15:15:48.931Z,6.70
2023-04-20T15:30:45.096Z,6.10
2023-04-20T15:45:45.061Z,6.70
2023-04-20T16:00:44.700Z,6.00
2023-04-20T16:15:45.600Z,5.80
2023-04-20T16:30:44.699Z,6.00
2023-04-20T16:45:44.286Z,6.10
2023-04-20T17:00:44.079Z,5.50
2023-04-20T17:15:43.941Z,5.90
2023-04-20T17:30:43.817Z,6.10
2023-04-20T17:45:43.617Z,6.10
2023-04-20T18:00:43.471Z,6.40
2023-04-20T18:15:43.414Z,6.40
2023-04-20T18:30:44.141Z,6.30
2023-04-20T18:45:43.049Z,6.90
2023-04-20T19:00:43.399Z,7.30
2023-04-20T19:15:42.623Z,7.50
2023-04-20T19:30:42.514Z,7.00
2023-04-20T19:45:42.340Z,7.00
2023-04-20T20:00:42.224Z,6.80
2023-04-20T20:15:42.010Z,7.60
2023-04-20T20:30:41.860Z,7.30
2023-04-20T20:45:41.681Z,7.60
2023-04-20T21:00:41.687Z,7.30
2023-04-20T21:15:41.373Z,6.80
2023-04-20T21:30:41.196Z,7.60
2023-04-20T21:45:41.083Z,7.10
2023-04-20T22:00:40.874Z,6.70
2023-04-20T22:15:40.754Z,5.80
2023-04-20T22:30:40.548Z,5.60
2023-04-20T22:45:40.418Z,5.90
2023-04-20T23:00:40.274Z,5.50
2023-04-20T23:15:40.090Z,5.80
2023-04-20T23:30:39.912Z,6.20
2023-04-20T23:45:39.854Z,5.40
